createdAt,value
2017-09-22T00:01:13.515Z,8.90
2017-09-22T00:03:41.811Z,8.90
2017-09-22T00:06:10.122Z,8.70
2017-09-22T00:08:37.775Z,8.60
2017-09-22T00:11:05.295Z,8.60
2017-09-22T00:13:33.027Z,8.70
2017-09-22T00:16:00.622Z,8.70
2017-09-22T00:18:28.134Z,8.70
2017-09-22T00:20:55.871Z,8.60
2017-09-22T00:23:23.386Z,8.50
2017-09-22T00:25:50.930Z,8.40
2017-09-22T00:28:18.780Z,8.40
2017-09-22T00:30:46.295Z,8.50
2017-09-22T00:33:13.858Z,8.60
2017-09-22T00:35:41.870Z,8.60
2017-09-22T00:38:09.392Z,8.70
2017-09-22T00:40:36.898Z,8.50
2017-09-22T00:43:04.764Z,8.50
2017-09-22T00:45:32.295Z,8.40
2017-09-22T00:47:59.822Z,8.20
2017-09-22T00:50:27.516Z,8.30
2017-09-22T00:52:55.111Z,8.40
2017-09-22T00:55:22.677Z,8.30
2017-09-22T00:57:50.238Z,8.10
2017-09-22T01:00:17.838Z,8.10
2017-09-22T01:02:45.355Z,8.20
2017-09-22T01:05:13.171Z,8.30
2017-09-22T01:07:40.731Z,8.20
2017-09-22T01:10:08.298Z,8.10
2017-09-22T01:12:35.923Z,8.10
2017-09-22T01:15:03.258Z,8.00
2017-09-22T01:17:30.798Z,8.00
2017-09-22T01:19:58.565Z,8.00
2017-09-22T01:22:26.110Z,7.90
2017-09-22T01:24:53.651Z,7.80
2017-09-22T01:27:21.266Z,7.90
2017-09-22T01:29:49.238Z,7.90
2017-09-22T01:32:17.010Z,7.80
2017-09-22T01:34:45.550Z,7.60
2017-09-22T01:37:13.353Z,7.60
2017-09-22T01:39:41.671Z,7.50
2017-09-22T01:42:09.285Z,7.50
2017-09-22T01:44:36.787Z,7.60
2017-09-22T01:47:05.139Z,7.60
2017-09-22T01:49:32.747Z,7.60
2017-09-22T01:52:00.253Z,7.70
2017-09-22T01:54:27.793Z,7.70
2017-09-22T01:56:55.399Z,7.60
2017-09-22T01:59:22.915Z,7.60
2017-09-22T02:01:50.648Z,7.60
2017-09-22T02:04:18.231Z,7.60
2017-09-22T02:06:45.772Z,7.60
2017-09-22T02:09:13.308Z,7.50
2017-09-22T02:11:40.965Z,7.40
2017-09-22T02:14:08.498Z,7.40
2017-09-22T02:16:36.018Z,7.30
2017-09-22T02:19:03.594Z,7.60
2017-09-22T02:21:31.107Z,7.60
2017-09-22T02:23:58.626Z,7.60
2017-09-22T02:26:26.545Z,7.50
2017-09-22T02:28:54.075Z,7.40
2017-09-22T02:31:22.186Z,7.20
2017-09-22T02:33:51.419Z,7.40
2017-09-22T02:36:20.359Z,7.40
2017-09-22T02:38:48.727Z,7.60
2017-09-22T02:41:17.286Z,7.60
2017-09-22T02:43:44.823Z,7.50
2017-09-22T02:46:12.360Z,7.40
2017-09-22T02:48:40.166Z,7.50
2017-09-22T02:51:07.711Z,7.60
2017-09-22T02:53:35.241Z,7.60
2017-09-22T02:56:02.810Z,7.40
2017-09-22T02:58:30.327Z,7.30
2017-09-22T03:00:58.692Z,7.10
2017-09-22T03:03:26.556Z,7.00
2017-09-22T03:05:54.088Z,7.00
2017-09-22T03:08:21.599Z,6.90
2017-09-22T03:10:49.435Z,6.90
2017-09-22T03:13:16.991Z,6.90
2017-09-22T03:15:44.666Z,6.80
2017-09-22T03:18:12.534Z,6.80
2017-09-22T03:20:40.047Z,6.70
2017-09-22T03:23:07.555Z,6.70
2017-09-22T03:25:36.110Z,6.80
2017-09-22T03:28:03.638Z,6.80
2017-09-22T03:30:31.570Z,7.00
2017-09-22T03:32:59.231Z,7.10
2017-09-22T03:35:27.637Z,6.90
2017-09-22T03:37:55.188Z,6.90
2017-09-22T03:40:23.032Z,6.90
2017-09-22T03:42:51.320Z,7.10
2017-09-22T03:45:19.606Z,7.10
2017-09-22T03:47:47.416Z,7.10
2017-09-22T03:50:14.971Z,7.20
2017-09-22T03:52:42.629Z,7.20
2017-09-22T03:55:10.522Z,7.00
2017-09-22T03:57:38.055Z,7.00
2017-09-22T04:00:05.569Z,7.20
2017-09-22T04:02:34.194Z,7.30
2017-09-22T04:05:02.567Z,7.40
2017-09-22T04:07:30.103Z,7.40
2017-09-22T04:09:58.307Z,7.50
2017-09-22T04:12:25.891Z,7.60
2017-09-22T04:14:53.471Z,7.80
2017-09-22T04:17:21.774Z,7.90
2017-09-22T04:19:49.630Z,8.10
2017-09-22T04:22:17.169Z,8.00
2017-09-22T04:24:45.682Z,7.50
2017-09-22T04:27:13.191Z,7.50
2017-09-22T04:29:40.698Z,7.30
2017-09-22T04:32:08.313Z,7.30
2017-09-22T04:34:36.031Z,7.30
2017-09-22T04:37:03.578Z,7.40
2017-09-22T04:39:31.940Z,7.70
2017-09-22T04:41:59.472Z,7.70
2017-09-22T04:44:27.006Z,7.70
2017-09-22T04:46:54.588Z,7.70
2017-09-22T04:49:22.133Z,7.80
2017-09-22T04:51:49.655Z,7.90
2017-09-22T04:54:17.594Z,7.90
2017-09-22T04:56:45.152Z,7.80
2017-09-22T04:59:12.695Z,7.90
2017-09-22T05:01:40.268Z,7.90
2017-09-22T05:04:07.783Z,7.70
2017-09-22T05:06:35.407Z,7.50
2017-09-22T05:09:03.231Z,7.30
2017-09-22T05:11:30.734Z,7.00
2017-09-22T05:13:58.275Z,6.90
2017-09-22T05:16:31.828Z,6.80
2017-09-22T05:18:59.363Z,6.60
2017-09-22T05:21:27.046Z,6.50
2017-09-22T05:23:54.711Z,6.40
2017-09-22T05:26:22.642Z,6.40
2017-09-22T05:28:50.198Z,6.30
2017-09-22T05:31:17.983Z,6.40
2017-09-22T05:33:45.554Z,6.60
2017-09-22T05:36:13.084Z,6.50
2017-09-22T05:38:40.627Z,6.40
2017-09-22T05:41:08.212Z,6.40
2017-09-22T05:43:35.828Z,6.30
2017-09-22T05:46:03.354Z,6.40
2017-09-22T05:48:31.189Z,6.40
2017-09-22T05:50:58.731Z,6.50
2017-09-22T05:53:26.256Z,6.60
2017-09-22T05:55:53.812Z,6.60
2017-09-22T05:58:21.367Z,6.70
2017-09-22T06:00:48.898Z,6.80
2017-09-22T06:03:16.728Z,6.80
2017-09-22T06:05:44.235Z,7.00
2017-09-22T06:08:11.771Z,7.20
2017-09-22T06:10:40.095Z,8.30
2017-09-22T06:13:07.616Z,8.20
2017-09-22T06:15:35.266Z,9.00
2017-09-22T06:18:03.474Z,9.60
2017-09-22T06:20:31.026Z,10.20
2017-09-22T06:22:58.546Z,10.50
2017-09-22T06:25:26.236Z,11.00
2017-09-22T06:27:54.611Z,12.10
2017-09-22T06:30:22.119Z,12.10
2017-09-22T06:32:49.865Z,12.50
2017-09-22T06:35:17.383Z,12.90
2017-09-22T06:37:44.971Z,13.40
2017-09-22T06:40:12.830Z,13.40
2017-09-22T06:42:41.139Z,12.50
2017-09-22T06:45:08.655Z,12.50
2017-09-22T06:47:36.255Z,12.00
2017-09-22T06:50:03.847Z,11.40
2017-09-22T06:52:31.440Z,11.40
2017-09-22T06:54:59.164Z,11.40
2017-09-22T06:57:26.772Z,11.50
2017-09-22T06:59:54.279Z,11.60
2017-09-22T07:02:21.864Z,11.70
2017-09-22T07:04:49.396Z,11.70
2017-09-22T07:07:17.726Z,11.70
2017-09-22T07:09:46.054Z,11.70
2017-09-22T07:12:13.606Z,11.70
2017-09-22T07:14:41.119Z,11.70
2017-09-22T07:17:09.831Z,11.70
2017-09-22T07:19:37.336Z,11.60
2017-09-22T07:22:04.924Z,11.70
2017-09-22T07:24:33.422Z,11.60
2017-09-22T07:27:00.975Z,11.60
2017-09-22T07:29:28.523Z,11.70
2017-09-22T07:31:56.880Z,11.80
2017-09-22T07:34:24.562Z,11.80
2017-09-22T07:36:52.079Z,12.00
2017-09-22T07:39:20.331Z,12.10
2017-09-22T07:41:47.858Z,12.40
2017-09-22T07:44:16.143Z,12.80
2017-09-22T07:46:44.527Z,12.90
2017-09-22T07:49:12.071Z,12.80
2017-09-22T07:51:40.495Z,12.90
2017-09-22T07:54:08.043Z,12.90
2017-09-22T07:56:35.578Z,13.50
2017-09-22T07:59:04.090Z,14.30
2017-09-22T08:01:31.649Z,14.70
2017-09-22T08:03:59.571Z,14.70
2017-09-22T08:06:27.248Z,14.90
2017-09-22T08:08:54.828Z,15.10
2017-09-22T08:11:22.735Z,15.00
2017-09-22T08:13:50.244Z,15.50
2017-09-22T08:16:18.595Z,16.50
2017-09-22T08:18:46.817Z,17.60
2017-09-22T08:21:14.851Z,18.00
2017-09-22T08:23:42.363Z,19.10
2017-09-22T08:26:09.890Z,20.10
2017-09-22T08:28:37.207Z,20.10
2017-09-22T08:31:04.616Z,20.50
2017-09-22T08:33:32.132Z,21.60
2017-09-22T08:35:59.739Z,22.70
2017-09-22T08:38:27.144Z,23.10
2017-09-22T08:40:54.735Z,22.60
2017-09-22T08:43:22.410Z,22.70
2017-09-22T08:45:50.415Z,23.40
2017-09-22T08:48:17.938Z,24.00
2017-09-22T08:50:45.507Z,25.10
2017-09-22T08:53:14.866Z,25.10
2017-09-22T08:55:42.438Z,25.00
2017-09-22T08:58:10.718Z,24.10
2017-09-22T09:00:39.460Z,24.30
2017-09-22T09:03:07.054Z,24.30
2017-09-22T09:05:35.395Z,22.10
2017-09-22T09:08:03.059Z,22.10
2017-09-22T09:10:30.575Z,21.60
2017-09-22T09:12:58.156Z,22.70
2017-09-22T09:15:26.176Z,22.40
2017-09-22T09:17:53.703Z,23.50
2017-09-22T09:20:21.256Z,23.80
2017-09-22T09:22:49.099Z,24.90
2017-09-22T09:25:16.908Z,25.00
2017-09-22T09:27:44.546Z,25.10
2017-09-22T09:30:12.140Z,25.70
2017-09-22T09:32:39.662Z,24.80
2017-09-22T09:35:07.237Z,24.60
2017-09-22T09:37:34.823Z,24.80
2017-09-22T09:40:02.525Z,24.70
2017-09-22T09:42:30.074Z,24.50
2017-09-22T09:44:58.516Z,24.60
2017-09-22T09:47:26.050Z,24.50
2017-09-22T09:49:53.577Z,25.20
2017-09-22T09:52:21.448Z,25.60
2017-09-22T09:54:48.995Z,24.50
2017-09-22T09:57:17.276Z,24.60
2017-09-22T09:59:45.640Z,25.30
2017-09-22T10:02:13.278Z,25.20
2017-09-22T10:04:40.897Z,24.00
2017-09-22T10:07:08.457Z,23.80
2017-09-22T10:09:36.884Z,24.70
2017-09-22T10:12:04.423Z,25.00
2017-09-22T10:14:32.182Z,23.90
2017-09-22T10:16:59.727Z,25.40
2017-09-22T10:19:27.291Z,26.70
2017-09-22T10:21:54.979Z,26.40
2017-09-22T10:24:22.547Z,27.00
2017-09-22T10:26:50.191Z,26.50
2017-09-22T10:29:17.788Z,26.50
2017-09-22T10:31:45.303Z,26.50
2017-09-22T10:34:13.502Z,26.50
2017-09-22T10:36:41.105Z,26.90
2017-09-22T10:39:08.668Z,26.90
2017-09-22T10:41:36.291Z,27.30
2017-09-22T10:44:03.875Z,27.00
2017-09-22T10:46:32.618Z,27.60
2017-09-22T10:49:00.125Z,27.60
2017-09-22T10:51:27.722Z,27.20
2017-09-22T10:53:55.333Z,27.10
2017-09-22T10:56:23.626Z,25.80
2017-09-22T10:58:51.952Z,25.00
2017-09-22T11:01:19.551Z,25.00
2017-09-22T11:03:47.960Z,25.70
2017-09-22T11:06:15.851Z,25.70
2017-09-22T11:08:43.366Z,25.00
2017-09-22T11:11:11.676Z,24.10
2017-09-22T11:13:39.323Z,24.00
2017-09-22T11:16:06.961Z,24.80
2017-09-22T11:18:36.356Z,24.40
2017-09-22T11:21:03.928Z,24.30
2017-09-22T11:23:32.198Z,24.60
2017-09-22T11:26:00.766Z,24.80
2017-09-22T11:28:28.424Z,24.80
2017-09-22T11:30:55.454Z,26.10
2017-09-22T11:33:23.051Z,26.30
2017-09-22T11:35:51.363Z,25.40
2017-09-22T11:38:19.327Z,25.40
2017-09-22T11:40:46.915Z,24.70
2017-09-22T11:43:14.733Z,24.10
2017-09-22T11:45:43.015Z,25.80
2017-09-22T11:48:11.346Z,25.90
2017-09-22T11:50:38.907Z,25.90
2017-09-22T11:53:06.458Z,26.90
2017-09-22T11:55:33.996Z,27.90
2017-09-22T11:58:01.955Z,28.60
2017-09-22T12:00:29.593Z,28.80
2017-09-22T12:02:57.915Z,28.70
2017-09-22T12:05:25.747Z,28.60
2017-09-22T12:07:54.135Z,26.40
2017-09-22T12:10:21.659Z,26.50
2017-09-22T12:12:49.462Z,26.40
2017-09-22T12:15:16.986Z,27.50
2017-09-22T12:17:44.506Z,27.10
2017-09-22T12:20:12.150Z,27.80
2017-09-22T12:22:39.709Z,26.70
2017-09-22T12:25:07.215Z,27.70
2017-09-22T12:27:34.811Z,27.70
2017-09-22T12:30:03.062Z,26.10
2017-09-22T12:32:30.602Z,26.10
2017-09-22T12:34:58.385Z,26.10
2017-09-22T12:37:25.945Z,25.40
2017-09-22T12:39:53.459Z,25.00
2017-09-22T12:42:21.033Z,25.50
2017-09-22T12:44:48.631Z,26.00
2017-09-22T12:47:16.179Z,25.70
2017-09-22T12:49:43.823Z,25.20
2017-09-22T12:52:11.379Z,24.40
2017-09-22T12:54:39.018Z,23.70
2017-09-22T12:57:06.600Z,22.50
2017-09-22T12:59:34.115Z,22.50
2017-09-22T13:02:01.640Z,21.90
2017-09-22T13:04:29.247Z,21.50
2017-09-22T13:06:56.862Z,21.40
2017-09-22T13:09:24.378Z,21.30
2017-09-22T13:11:52.255Z,21.30
2017-09-22T13:14:19.759Z,21.50
2017-09-22T13:16:47.315Z,21.80
2017-09-22T13:19:15.395Z,22.50
2017-09-22T13:21:43.887Z,23.70
2017-09-22T13:24:12.247Z,23.30
2017-09-22T13:26:39.831Z,23.30
2017-09-22T13:29:07.458Z,23.70
2017-09-22T13:31:34.976Z,24.20
2017-09-22T13:34:03.043Z,24.40
2017-09-22T13:36:30.749Z,24.00
2017-09-22T13:38:58.339Z,24.60
2017-09-22T13:41:27.018Z,24.10
2017-09-22T13:43:55.291Z,23.60
2017-09-22T13:46:23.608Z,24.10
2017-09-22T13:48:51.286Z,24.00
2017-09-22T13:51:18.799Z,23.80
2017-09-22T13:53:46.388Z,23.80
2017-09-22T13:56:13.958Z,24.10
2017-09-22T13:58:41.649Z,24.30
2017-09-22T14:01:09.336Z,25.30
2017-09-22T14:03:37.667Z,25.30
2017-09-22T14:06:05.197Z,25.30
2017-09-22T14:08:32.755Z,26.10
2017-09-22T14:11:00.382Z,26.80
2017-09-22T14:13:27.931Z,26.80
2017-09-22T14:15:55.455Z,27.30
2017-09-22T14:18:23.042Z,26.80
2017-09-22T14:20:50.628Z,25.70
2017-09-22T14:23:18.233Z,25.00
2017-09-22T14:25:45.787Z,23.40
2017-09-22T14:28:13.322Z,23.30
2017-09-22T14:30:40.983Z,23.20
2017-09-22T14:33:08.948Z,22.70
2017-09-22T14:35:37.364Z,22.10
2017-09-22T14:38:05.000Z,22.10
2017-09-22T14:40:32.570Z,22.20
2017-09-22T14:43:00.189Z,21.80
2017-09-22T14:45:27.815Z,21.50
2017-09-22T14:47:55.371Z,21.30
2017-09-22T14:50:22.884Z,21.20
2017-09-22T14:52:50.535Z,20.70
2017-09-22T14:55:18.840Z,20.40
2017-09-22T14:57:46.388Z,20.40
2017-09-22T15:00:14.909Z,20.50
2017-09-22T15:02:42.906Z,20.40
2017-09-22T15:05:10.419Z,20.70
2017-09-22T15:07:38.058Z,20.40
2017-09-22T15:10:06.870Z,20.20
2017-09-22T15:12:35.050Z,20.20
2017-09-22T15:15:02.572Z,20.20
2017-09-22T15:17:30.156Z,20.40
2017-09-22T15:19:58.699Z,20.50
2017-09-22T15:22:26.261Z,20.50
2017-09-22T15:24:54.392Z,20.40
2017-09-22T15:27:21.931Z,20.20
2017-09-22T15:29:49.592Z,20.20
2017-09-22T15:32:17.399Z,19.80
2017-09-22T15:34:45.099Z,19.70
2017-09-22T15:37:12.605Z,19.80
2017-09-22T15:39:40.205Z,19.90
2017-09-22T15:42:07.945Z,20.00
2017-09-22T15:44:35.482Z,20.20
2017-09-22T15:47:03.395Z,20.40
2017-09-22T15:49:31.026Z,20.60
2017-09-22T15:51:58.607Z,20.90
2017-09-22T15:54:26.213Z,20.90
2017-09-22T15:56:53.746Z,20.90
2017-09-22T15:59:21.300Z,20.60
2017-09-22T16:01:49.268Z,20.50
2017-09-22T16:04:16.996Z,20.40
2017-09-22T16:06:44.495Z,20.30
2017-09-22T16:09:12.207Z,20.10
2017-09-22T16:11:39.891Z,19.90
2017-09-22T16:14:07.446Z,19.80
2017-09-22T16:16:35.955Z,19.50
2017-09-22T16:19:03.540Z,19.30
2017-09-22T16:21:31.893Z,19.40
2017-09-22T16:23:59.339Z,19.40
2017-09-22T16:26:26.975Z,19.30
2017-09-22T16:28:54.527Z,19.10
2017-09-22T16:31:22.091Z,18.60
2017-09-22T16:33:49.732Z,18.70
2017-09-22T16:36:18.036Z,18.60
2017-09-22T16:38:46.077Z,18.60
2017-09-22T16:41:13.778Z,18.60
2017-09-22T16:43:41.675Z,18.60
2017-09-22T16:46:09.257Z,18.60
2017-09-22T16:48:37.567Z,18.50
2017-09-22T16:51:05.314Z,18.50
2017-09-22T16:53:33.255Z,18.50
2017-09-22T16:56:01.026Z,18.40
2017-09-22T16:58:28.547Z,18.40
2017-09-22T17:00:56.332Z,18.20
2017-09-22T17:03:23.858Z,18.10
2017-09-22T17:05:51.423Z,17.90
2017-09-22T17:08:19.452Z,17.70
2017-09-22T17:10:47.860Z,17.70
2017-09-22T17:13:15.423Z,17.50
2017-09-22T17:15:43.098Z,17.40
2017-09-22T17:18:10.623Z,17.30
2017-09-22T17:20:38.174Z,17.20
2017-09-22T17:23:06.532Z,16.90
2017-09-22T17:25:34.083Z,16.90
2017-09-22T17:28:02.494Z,16.80
2017-09-22T17:30:30.059Z,16.70
2017-09-22T17:32:58.595Z,16.70
2017-09-22T17:35:26.124Z,16.60
2017-09-22T17:37:54.076Z,16.60
2017-09-22T17:40:21.780Z,16.40
2017-09-22T17:42:49.299Z,16.40
2017-09-22T17:45:16.911Z,16.30
2017-09-22T17:47:44.437Z,16.30
2017-09-22T17:50:12.146Z,16.20
2017-09-22T17:52:39.735Z,16.20
2017-09-22T17:55:07.287Z,16.20
2017-09-22T17:57:35.880Z,16.00
2017-09-22T18:00:03.759Z,16.00
2017-09-22T18:02:32.210Z,15.90
2017-09-22T18:04:59.791Z,15.90
2017-09-22T18:07:27.667Z,15.80
2017-09-22T18:09:55.405Z,15.80
2017-09-22T18:12:22.995Z,15.80
2017-09-22T18:14:50.651Z,15.60
2017-09-22T18:17:18.158Z,15.50
2017-09-22T18:19:46.743Z,15.50
2017-09-22T18:22:14.371Z,15.50
2017-09-22T18:24:41.959Z,15.60
2017-09-22T18:27:09.619Z,15.60
2017-09-22T18:29:37.188Z,15.50
2017-09-22T18:32:04.707Z,15.40
2017-09-22T18:34:32.303Z,15.40
2017-09-22T18:36:59.886Z,15.30
2017-09-22T18:39:27.570Z,15.20
2017-09-22T18:41:55.204Z,15.10
2017-09-22T18:44:23.594Z,15.20
2017-09-22T18:46:51.934Z,15.20
2017-09-22T18:49:19.509Z,15.10
2017-09-22T18:51:47.489Z,15.20
2017-09-22T18:54:15.056Z,15.30
2017-09-22T18:56:42.843Z,15.10
2017-09-22T18:59:11.572Z,15.10
2017-09-22T19:01:39.573Z,15.00
2017-09-22T19:04:07.110Z,14.90
2017-09-22T19:06:35.106Z,14.80
2017-09-22T19:09:04.293Z,14.60
2017-09-22T19:11:31.959Z,14.50
2017-09-22T19:13:59.782Z,14.40
2017-09-22T19:16:27.326Z,14.30
2017-09-22T19:18:54.954Z,14.20
2017-09-22T19:21:22.597Z,14.10
2017-09-22T19:23:50.130Z,14.00
2017-09-22T19:26:18.277Z,13.90
2017-09-22T19:28:45.842Z,13.90
2017-09-22T19:31:13.473Z,13.80
2017-09-22T19:33:41.082Z,13.80
2017-09-22T19:36:08.654Z,13.70
2017-09-22T19:38:36.190Z,13.60
2017-09-22T19:41:03.858Z,13.50
2017-09-22T19:43:31.698Z,13.40
2017-09-22T19:45:59.280Z,13.20
2017-09-22T19:48:30.187Z,13.10
2017-09-22T19:50:58.503Z,13.20
2017-09-22T19:53:26.115Z,13.00
2017-09-22T19:55:54.430Z,12.90
2017-09-22T19:58:22.103Z,12.80
2017-09-22T20:00:49.726Z,12.70
2017-09-22T20:03:18.064Z,12.70
2017-09-22T20:05:46.663Z,12.70
2017-09-22T20:08:14.251Z,12.50
2017-09-22T20:10:43.166Z,12.40
2017-09-22T20:13:10.738Z,12.40
2017-09-22T20:15:38.507Z,12.40
2017-09-22T20:18:06.715Z,12.40
2017-09-22T20:20:34.275Z,12.40
2017-09-22T20:23:01.842Z,12.40
2017-09-22T20:25:29.622Z,12.40
2017-09-22T20:27:57.432Z,12.40
2017-09-22T20:30:25.038Z,12.50
2017-09-22T20:32:52.799Z,12.60
2017-09-22T20:35:20.537Z,12.60
2017-09-22T20:37:48.182Z,12.70
2017-09-22T20:40:15.776Z,12.70
2017-09-22T20:42:43.345Z,12.70
2017-09-22T20:45:10.975Z,12.60
2017-09-22T20:47:38.603Z,12.60
2017-09-22T20:50:08.170Z,12.70
2017-09-22T20:52:36.860Z,12.80
2017-09-22T20:55:04.405Z,12.90
2017-09-22T20:57:33.031Z,12.90
2017-09-22T21:00:00.873Z,13.00
2017-09-22T21:02:28.584Z,12.90
2017-09-22T21:04:57.187Z,12.70
2017-09-22T21:07:24.776Z,12.60
2017-09-22T21:09:52.310Z,12.40
2017-09-22T21:12:20.179Z,12.40
2017-09-22T21:14:47.744Z,12.20
2017-09-22T21:17:15.422Z,12.20
2017-09-22T21:19:42.991Z,12.20
2017-09-22T21:22:10.963Z,12.10
2017-09-22T21:24:38.952Z,12.00
2017-09-22T21:27:06.671Z,11.90
2017-09-22T21:29:34.398Z,11.90
2017-09-22T21:32:02.143Z,11.80
2017-09-22T21:34:29.783Z,11.80
2017-09-22T21:36:57.704Z,11.70
2017-09-22T21:39:26.450Z,11.60
2017-09-22T21:41:54.783Z,11.40
2017-09-22T21:44:22.496Z,11.40
2017-09-22T21:46:50.282Z,11.40
2017-09-22T21:49:17.850Z,11.40
2017-09-22T21:51:45.687Z,11.40
2017-09-22T21:54:13.292Z,11.40
2017-09-22T21:56:40.794Z,11.30
2017-09-22T21:59:08.391Z,11.20
2017-09-22T22:01:35.921Z,11.10
2017-09-22T22:04:09.250Z,11.10
2017-09-22T22:06:42.323Z,11.10
2017-09-22T22:09:10.055Z,11.10
2017-09-22T22:11:37.699Z,11.10
2017-09-22T22:14:05.232Z,11.00
2017-09-22T22:16:32.940Z,10.90
2017-09-22T22:19:00.471Z,11.00
2017-09-22T22:21:28.206Z,11.10
2017-09-22T22:23:55.777Z,11.10
2017-09-22T22:26:23.298Z,11.10
2017-09-22T22:28:50.818Z,11.10
2017-09-22T22:31:18.907Z,11.10
2017-09-22T22:33:46.419Z,11.20
2017-09-22T22:36:25.762Z,11.20
2017-09-22T22:38:53.263Z,11.30
2017-09-22T22:41:20.995Z,11.40
2017-09-22T22:43:48.572Z,11.40
2017-09-22T22:46:16.083Z,11.40
2017-09-22T22:48:43.609Z,11.30
2017-09-22T22:51:11.241Z,11.20
2017-09-22T22:53:38.768Z,11.20
2017-09-22T22:56:06.313Z,11.20
2017-09-22T22:58:34.924Z,11.10
2017-09-22T23:01:02.446Z,11.10
2017-09-22T23:03:30.731Z,11.10
2017-09-22T23:05:59.094Z,11.10
2017-09-22T23:08:26.603Z,11.10
2017-09-22T23:10:54.222Z,11.10
2017-09-22T23:13:22.479Z,11.10
2017-09-22T23:15:50.003Z,11.10
2017-09-22T23:18:17.516Z,11.10
2017-09-22T23:20:46.239Z,11.00
2017-09-22T23:23:13.759Z,11.00
2017-09-22T23:25:41.485Z,11.10
2017-09-22T23:28:09.282Z,11.10
2017-09-22T23:30:36.814Z,11.10
2017-09-22T23:33:04.331Z,11.10
2017-09-22T23:35:32.211Z,11.10
2017-09-22T23:37:59.764Z,11.00
2017-09-22T23:40:27.331Z,10.90
2017-09-22T23:42:54.947Z,10.90
2017-09-22T23:45:22.470Z,10.70
2017-09-22T23:47:49.991Z,10.70
2017-09-22T23:50:17.917Z,10.70
2017-09-22T23:52:45.443Z,10.70
2017-09-22T23:55:12.970Z,10.60
2017-09-22T23:57:41.363Z,10.50
